KALN/ALN METAR and TAF weather

Enter ICAO airport designator
Station Type Date Time Source
KALN METAR 2022/01/28 23:50 UTC NOAA

KALN 282350Z 34007KT 10SM CLR M06/M16 A3040


Station Type Date Time Source
KALN Decoded METAR 2022/01/28 23:50 UTC NOAA

Alton/St. Louis, St. Louis Regional Airport, IL, United States (KALN) 38-54N 090-03W
Jan 28, 2022 - 06:50 PM EST / 2022.01.28 2350 UTC
Wind: from the NNW (340 degrees) at 8 MPH (7 KT):0
Visibility: 10 mile(s):0
Sky conditions: clear
Temperature: 21 F (-6 C)
Windchill: 12 F (-11 C):1
Dew Point: 3 F (-16 C)
Relative Humidity: 45%
Pressure (altimeter): 30.4 in. Hg (1029 hPa)
ob: KALN 282350Z 34007KT 10SM CLR M06/M16 A3040
cycle: 0

Station Type Date Time Source
KALN TAF UTC NOAA

Error!

Example: see airport list